Recluse, Wyoming
Current Conditions -  °F | °C
As of 11:53 AM on Monday 22 Dec 2014 (Local Time) from KGCC Reporting Station
Overcast Overcast  
Wind Chill: 24°   Ceiling: 7500
Heat Index: 36°   Visibility: 10mi
Dew Point: 24°   Wind: 25mph
Humidity: 62%   Direction: 310°NW
Pressure: 29.66"   Gusts: 33mph
Location:  44.74°N, 105.71°W
Report Text: KGCC 221853Z AUTO 31022G29KT 10SM BKN075 OVC100 02/M04 A2966 RMK AO2 PK WND 31030/1802 SLP057 T00221044 TSNO
Loading
Personal Weather Stations






























Interactive Weather Map New forecast layout! Learn more

10-Day Weather Forecast

Advertisements
Track Severe Weather on mobile